CYVT

Buffalo Narrows Airport

Buffalo Narrows, Saskatchewan, Canada
METAR CYVT 110400Z 25004KT 15SM FEW010 OVC100 M05/M07 A2968 RMK ST1AC7 LAST STFD OBS/NXT 111200 UTC SLP083
Observed Flight Rules
Dec-11 @ 04:00 UTC (33 minutes ago) Visual Flight Rules
Wind Visibility Clouds
250° at 4 knots 15 miles
  • Few at 1,000' AGL
  • Overcast at 10,000' AGL
Temperatures Readings
Current -5°C / 23°F
Dewpoint -7°C / 19°F
Humidity 86%
Altimeter 29.68" Hg
Pressure 1008.3 hPa
Elevation 434
METAR CYVT 110400Z 25004KT 15SM FEW010 OVC100 M05/M07 A2968 RMK ST1AC7 LAST STFD OBS/NXT 111200 UTC SLP083
Observed Flight Rules
Dec-11 @ 04:00 UTC
(33 minutes ago)
VFR
Wind Visibility
250° at 4 knots 15 miles
Clouds
  • Few at 1,000' AGL
  • Overcast at 10,000' AGL
Temperature Dewpoint
-5°C / 23°F -7°C / 19°F
Humidity Altimeter Pressure
86% 29.68" Hg 1008.3 hPa